Time;durP1;ratioP1;P1;durP2;ratioP2;P2;SDS_P1;SDS_P2;PMS_P1;PMS_P2;Temp;Humidity;BMP_temperature;BMP_pressure;BME280_temperature;BME280_humidity;BME280_pressure;Samples;Min_cycle;Max_cycle;Signal;HPM_P1;HPM_P2
2021/12/11 00:01:54;;;;;;;;;15.50;5.25;;;;;6.45;67.14;100799.47;5032011;28;45442;-58
2021/12/11 00:04:28;;;;;;;;;12.00;5.00;;;;;6.45;67.07;100809.94;5029294;28;45514;-59
2021/12/11 00:06:56;;;;;;;;;6.50;6.50;;;;;6.45;67.52;100815.16;5025538;28;45312;-58
2021/12/11 00:09:36;;;;;;;;;11.00;5.25;;;;;6.43;66.70;100817.84;5030600;28;45554;-58
2021/12/11 00:12:10;;;;;;;;;6.25;5.00;;;;;6.43;67.52;100838.78;5031221;28;45727;-58
2021/12/11 00:14:40;;;;;;;;;5.75;3.50;;;;;6.44;67.00;100834.38;5026160;28;45467;-58
2021/12/11 00:17:07;;;;;;;;;5.00;3.50;;;;;6.43;67.40;100841.41;5029371;28;45440;-57
2021/12/11 00:19:35;;;;;;;;;5.25;2.00;;;;;6.43;67.19;100838.78;5027938;28;45510;-58
2021/12/11 00:22:11;;;;;;;;;7.00;5.00;;;;;6.44;67.55;100853.56;5028459;28;45653;-58
2021/12/11 00:24:38;;;;;;;;;7.50;6.00;;;;;6.46;67.18;100856.09;5025996;28;45514;-58
2021/12/11 00:27:09;;;;;;;;;5.00;5.00;;;;;6.47;66.81;100854.34;5029972;28;45854;-58
2021/12/11 00:29:36;;;;;;;;;9.75;5.75;;;;;6.47;66.90;100852.56;5029557;28;45716;-58
2021/12/11 00:32:10;;;;;;;;;7.00;3.00;;;;;6.48;67.70;100858.66;5027208;28;45716;-58
2021/12/11 00:34:38;;;;;;;;;4.50;2.50;;;;;6.47;67.00;100860.41;5026278;28;45742;-58
2021/12/11 00:37:07;;;;;;;;;6.00;3.00;;;;;6.47;67.39;100864.81;5027332;28;45565;-58
2021/12/11 00:39:39;;;;;;;;;5.75;2.75;;;;;6.46;67.19;100871.81;5028444;28;45765;-58
2021/12/11 00:42:12;;;;;;;;;6.50;3.00;;;;;6.44;67.10;100874.50;5024949;28;46200;-59
2021/12/11 00:44:43;;;;;;;;;5.00;3.00;;;;;6.44;67.27;100879.72;5027044;28;45487;-58
2021/12/11 00:47:10;;;;;;;;;10.00;3.50;;;;;6.44;67.66;100889.34;5027966;28;45552;-58
2021/12/11 00:49:44;;;;;;;;;7.75;4.50;;;;;6.42;66.84;100892.03;5025581;28;45392;-58
2021/12/11 00:52:10;;;;;;;;;5.50;4.00;;;;;6.38;67.19;100900.88;5022231;28;45535;-58
2021/12/11 00:54:40;;;;;;;;;2.75;2.75;;;;;6.37;67.95;100898.34;5028035;28;45503;-59
2021/12/11 00:57:06;;;;;;;;;5.50;2.50;;;;;6.36;67.05;100891.41;5028124;28;45608;-58
2021/12/11 00:59:31;;;;;;;;;11.00;6.00;;;;;6.33;67.83;100894.16;5028288;28;45810;-58
2021/12/11 01:01:59;;;;;;;;;3.00;3.00;;;;;6.35;67.82;100900.16;5025480;28;45576;-58
2021/12/11 01:04:40;;;;;;;;;7.50;4.50;;;;;6.35;67.10;100902.78;5026282;28;45547;-57
2021/12/11 01:07:18;;;;;;;;;8.50;2.50;;;;;6.34;68.04;100911.56;5028154;28;46036;-59
2021/12/11 01:09:54;;;;;;;;;5.50;3.25;;;;;6.32;68.07;100921.19;5029844;28;45817;-58
2021/12/11 01:12:26;;;;;;;;;5.50;2.00;;;;;6.32;67.28;100915.97;5026361;28;45533;-59
2021/12/11 01:15:10;;;;;;;;;8.00;3.25;;;;;6.31;67.96;100928.19;5026712;28;45507;-59
2021/12/11 01:17:47;;;;;;;;;5.00;2.00;;;;;6.31;67.95;100927.34;5026680;28;45531;-58
2021/12/11 01:20:23;;;;;;;;;3.00;2.00;;;;;6.32;68.00;100944.75;5029657;28;45824;-59
2021/12/11 01:22:50;;;;;;;;;6.00;2.00;;;;;6.31;67.77;100943.03;5028089;28;46401;-59
2021/12/11 01:25:26;;;;;;;;;6.75;2.00;;;;;6.29;67.20;100952.72;5027970;28;45490;-58
2021/12/11 01:27:56;;;;;;;;;5.50;3.50;;;;;6.26;67.34;100953.72;5022642;28;45407;-58
2021/12/11 01:30:31;;;;;;;;;4.25;1.75;;;;;6.26;67.66;100964.16;5029286;28;45600;-58
2021/12/11 01:32:58;;;;;;;;;3.00;2.25;;;;;6.26;68.17;100963.31;5027852;28;45391;-58
2021/12/11 01:35:25;;;;;;;;;10.50;6.00;;;;;6.28;67.92;100970.19;5029245;28;45543;-59
2021/12/11 01:38:09;;;;;;;;;5.25;4.25;;;;;6.28;68.24;100974.56;5027185;28;45725;-58
2021/12/11 01:40:35;;;;;;;;;8.50;3.00;;;;;6.28;67.85;100977.19;5028023;28;45763;-58
2021/12/11 01:43:05;;;;;;;;;10.25;7.50;;;;;6.25;68.12;100978.16;5026865;28;45562;-56
2021/12/11 01:45:32;;;;;;;;;6.00;5.00;;;;;6.24;68.01;100994.78;5029889;28;45929;-57
2021/12/11 01:47:57;;;;;;;;;2.50;2.50;;;;;6.24;67.56;100996.50;5029333;28;45510;-58
2021/12/11 01:50:25;;;;;;;;;7.25;3.25;;;;;6.24;68.13;100997.38;5028158;28;45712;-58
2021/12/11 01:53:03;;;;;;;;;4.50;3.50;;;;;6.23;68.33;100989.56;5027435;28;46030;-59
2021/12/11 01:55:38;;;;;;;;;2.25;2.25;;;;;6.23;68.41;100993.03;5029041;28;45524;-58
2021/12/11 01:58:09;;;;;;;;;4.25;2.50;;;;;6.21;67.58;100994.00;5027198;28;45481;-59
2021/12/11 02:00:48;;;;;;;;;1.75;1.50;;;;;6.19;67.57;100994.06;5027683;28;45903;-58
2021/12/11 02:03:19;;;;;;;;;5.50;1.00;;;;;6.19;68.05;101006.31;5026894;28;45565;-58
2021/12/11 02:05:45;;;;;;;;;8.00;5.50;;;;;6.18;68.32;101005.47;5028916;28;45482;-58
2021/12/11 02:08:15;;;;;;;;;6.00;5.00;;;;;6.17;68.47;101010.75;5044554;28;45490;-58
2021/12/11 02:10:57;;;;;;;;;9.25;5.75;;;;;6.16;68.65;101017.72;5028340;28;45741;-58
2021/12/11 02:13:41;;;;;;;;;7.25;6.00;;;;;6.15;68.40;101024.72;5024273;28;46748;-58
2021/12/11 02:16:16;;;;;;;;;4.00;4.00;;;;;6.14;68.50;101025.63;5028558;28;45604;-58
2021/12/11 02:18:45;;;;;;;;;8.50;5.75;;;;;6.14;68.41;101030.84;5029072;28;45515;-58
2021/12/11 02:21:21;;;;;;;;;5.50;3.25;;;;;6.13;68.77;101030.91;5023760;28;45648;-58
2021/12/11 02:23:57;;;;;;;;;6.00;3.00;;;;;6.13;68.76;101044.00;5024500;28;46294;-57
2021/12/11 02:26:24;;;;;;;;;11.00;5.25;;;;;6.11;68.16;101041.44;5025386;28;45465;-58
2021/12/11 02:29:04;;;;;;;;;4.50;4.50;;;;;6.11;68.04;101048.44;5030963;28;45382;-59
2021/12/11 02:31:46;;;;;;;;;5.25;3.50;;;;;6.08;68.50;101051.13;5032724;28;45441;-58
2021/12/11 02:34:24;;;;;;;;;2.75;2.75;;;;;6.05;68.24;101056.50;5030360;28;45526;-57
2021/12/11 02:36:58;;;;;;;;;8.00;3.25;;;;;6.04;68.42;101060.00;5029020;28;45428;-58
2021/12/11 02:39:29;;;;;;;;;5.00;5.00;;;;;6.01;68.50;101053.13;5028685;28;45457;-57
2021/12/11 02:42:04;;;;;;;;;7.25;5.00;;;;;5.99;68.85;101056.69;5032157;28;45306;-57
2021/12/11 02:44:37;;;;;;;;;5.25;3.75;;;;;5.94;68.25;101054.25;5033195;28;46278;-57
2021/12/11 02:47:12;;;;;;;;;2.00;2.00;;;;;5.90;68.41;101065.69;5030616;28;45367;-57
2021/12/11 02:49:44;;;;;;;;;6.25;3.25;;;;;5.88;68.99;101064.91;5029836;28;45392;-57
2021/12/11 02:52:20;;;;;;;;;4.75;3.75;;;;;5.86;68.60;101067.56;5030250;28;45383;-57
2021/12/11 02:54:52;;;;;;;;;5.75;3.25;;;;;5.86;68.85;101067.56;5031809;28;45220;-57
2021/12/11 02:57:22;;;;;;;;;5.25;1.50;;;;;5.85;68.23;101070.25;5026833;28;46588;-57
2021/12/11 02:59:48;;;;;;;;;3.25;3.25;;;;;5.84;68.74;101069.34;5030846;28;45898;-57
2021/12/11 03:02:23;;;;;;;;;9.25;3.50;;;;;5.83;68.53;101077.25;5028820;28;45418;-57
2021/12/11 03:04:53;;;;;;;;;10.75;3.50;;;;;5.80;68.70;101080.84;5029619;28;45911;-57
2021/12/11 03:07:24;;;;;;;;;6.25;3.75;;;;;5.79;69.46;101081.75;5030298;28;45452;-57
2021/12/11 03:09:55;;;;;;;;;5.50;3.25;;;;;5.80;69.07;101093.91;5030935;28;45285;-57
2021/12/11 03:12:23;;;;;;;;;6.25;5.00;;;;;5.79;68.74;101086.97;5028419;28;45532;-57
2021/12/11 03:14:49;;;;;;;;;1.50;1.25;;;;;5.81;69.25;101103.47;5029653;28;45395;-57
2021/12/11 03:17:17;;;;;;;;;4.25;2.00;;;;;5.80;68.63;101100.91;5027377;28;45316;-57
2021/12/11 03:19:45;;;;;;;;;3.00;2.75;;;;;5.80;68.84;101106.13;5031337;28;46528;-57
2021/12/11 03:22:19;;;;;;;;;4.00;4.00;;;;;5.81;69.48;101119.13;5030495;28;45549;-57
2021/12/11 03:24:46;;;;;;;;;5.75;3.75;;;;;5.78;68.86;101121.88;5029184;28;46046;-57
2021/12/11 03:27:12;;;;;;;;;4.00;2.00;;;;;5.78;69.00;101134.09;5029250;28;45213;-57
2021/12/11 03:29:38;;;;;;;;;8.50;5.50;;;;;5.77;69.36;101135.00;5031615;28;45480;-57
2021/12/11 03:32:07;;;;;;;;;5.25;4.00;;;;;5.76;69.03;101134.13;5030085;28;45616;-57
2021/12/11 03:34:33;;;;;;;;;5.25;1.50;;;;;5.75;69.01;101142.00;5028266;28;46531;-58
2021/12/11 03:37:02;;;;;;;;;6.75;2.50;;;;;5.74;69.62;101140.31;5029945;28;45477;-58
2021/12/11 03:39:32;;;;;;;;;6.00;4.00;;;;;5.71;69.07;101141.28;5029834;28;45512;-56
2021/12/11 03:42:01;;;;;;;;;7.50;4.00;;;;;5.69;69.43;101143.09;5030941;28;45463;-58
2021/12/11 03:44:32;;;;;;;;;5.00;2.50;;;;;5.66;70.13;101144.94;5032147;28;46219;-58
2021/12/11 03:47:03;;;;;;;;;2.00;2.00;;;;;5.64;70.05;101154.59;5029932;28;46393;-58
2021/12/11 03:49:28;;;;;;;;;3.25;3.25;;;;;5.60;70.08;101164.25;5030402;28;45322;-58
2021/12/11 03:51:54;;;;;;;;;5.25;1.50;;;;;5.60;69.54;101164.25;5029112;28;45443;-58
2021/12/11 03:54:29;;;;;;;;;4.50;2.25;;;;;5.59;70.04;101160.81;5028467;28;45476;-58
2021/12/11 03:56:56;;;;;;;;;5.00;2.00;;;;;5.59;69.61;101163.41;5025828;28;45428;-58
2021/12/11 03:59:22;;;;;;;;;4.75;3.25;;;;;5.61;69.93;101173.84;5029436;28;45439;-56
2021/12/11 04:01:58;;;;;;;;;3.00;3.00;;;;;5.62;69.98;101167.72;5029822;28;45293;-58
2021/12/11 04:04:29;;;;;;;;;1.00;1.00;;;;;5.63;69.19;101168.56;5027550;28;45313;-58
2021/12/11 04:06:56;;;;;;;;;5.50;1.00;;;;;5.64;70.21;101175.50;5023354;28;45401;-58
2021/12/11 04:09:23;;;;;;;;;5.00;3.25;;;;;5.63;70.13;101168.56;5030127;28;45296;-58
2021/12/11 04:11:51;;;;;;;;;6.00;4.75;;;;;5.63;69.42;101172.03;5030221;28;45466;-58
2021/12/11 04:14:24;;;;;;;;;7.00;5.75;;;;;5.62;69.62;101167.72;5030658;28;46034;-58
2021/12/11 04:16:51;;;;;;;;;3.75;3.75;;;;;5.60;70.23;101180.81;5028300;28;45304;-58
2021/12/11 04:19:17;;;;;;;;;5.00;2.75;;;;;5.58;69.90;101184.38;5029868;28;45362;-57
2021/12/11 04:21:44;;;;;;;;;7.50;3.50;;;;;5.57;69.79;101182.66;5027312;28;45347;-57
2021/12/11 04:24:17;;;;;;;;;7.25;3.25;;;;;5.56;70.39;101186.19;5030632;28;46348;-59
2021/12/11 04:26:45;;;;;;;;;5.00;4.25;;;;;5.56;70.07;101187.03;5028005;28;45437;-58
2021/12/11 04:29:11;;;;;;;;;7.75;4.00;;;;;5.55;69.99;101194.94;5030512;28;45303;-57
2021/12/11 04:31:41;;;;;;;;;7.25;6.00;;;;;5.55;69.78;101201.00;5031300;28;45373;-57
2021/12/11 04:34:07;;;;;;;;;6.50;4.75;;;;;5.53;70.56;101200.22;5029070;28;45373;-57
2021/12/11 04:36:41;;;;;;;;;5.50;4.00;;;;;5.54;69.81;101209.75;5029032;28;45550;-57
2021/12/11 04:39:09;;;;;;;;;4.75;2.75;;;;;5.53;69.83;101212.41;5028416;28;45414;-57
2021/12/11 04:41:43;;;;;;;;;2.25;1.00;;;;;5.51;69.38;101215.06;5025860;28;45592;-57
2021/12/11 04:44:16;;;;;;;;;5.00;2.00;;;;;5.49;70.08;101214.25;5029730;28;45686;-58
2021/12/11 04:46:42;;;;;;;;;3.75;2.75;;;;;5.45;70.32;101210.03;5031197;28;45514;-57
2021/12/11 04:49:36;;;;;;;;;4.00;4.00;;;;;5.43;69.81;101213.59;5031360;28;45458;-57
2021/12/11 04:57:38;;;;;;;;;8.00;2.00;;;;;5.37;70.12;101238.13;5031004;28;45245;-57
2021/12/11 05:08:13;;;;;;;;;2.50;2.00;;;;;5.37;70.75;101225.06;5031512;28;45441;-57
2021/12/11 05:10:52;;;;;;;;;5.25;5.25;;;;;5.35;69.93;101226.03;5032385;28;45643;-57
2021/12/11 05:13:18;;;;;;;;;8.25;6.00;;;;;5.30;70.47;101236.63;5028545;28;45193;-57
2021/12/11 05:15:47;;;;;;;;;9.00;5.25;;;;;5.28;70.30;101235.78;5031405;28;45224;-57
2021/12/11 05:18:16;;;;;;;;;4.75;3.25;;;;;5.25;69.91;101225.44;5030728;28;45349;-58
2021/12/11 05:20:45;;;;;;;;;7.75;5.00;;;;;5.24;69.51;101234.19;5033641;28;45367;-58
2021/12/11 05:23:12;;;;;;;;;8.00;5.00;;;;;5.23;70.81;101241.16;5045591;28;45453;-58
2021/12/11 05:25:38;;;;;;;;;5.00;4.75;;;;;5.22;71.31;101249.06;5031473;28;45506;-58
2021/12/11 05:28:04;;;;;;;;;5.00;4.75;;;;;5.21;70.45;101248.19;5033152;28;45471;-58
2021/12/11 05:30:36;;;;;;;;;8.50;3.50;;;;;5.22;70.93;101259.50;5033215;28;45284;-58
2021/12/11 05:33:02;;;;;;;;;7.25;3.00;;;;;5.23;71.22;101259.44;5032189;28;45376;-58
2021/12/11 05:35:32;;;;;;;;;7.75;3.75;;;;;5.21;70.19;101263.88;5031924;28;46140;-58
2021/12/11 05:37:59;;;;;;;;;4.75;2.25;;;;;5.20;70.00;101275.19;5030611;28;45225;-58
2021/12/11 05:40:27;;;;;;;;;12.50;7.25;;;;;5.19;70.59;101285.69;5032871;28;45325;-58
2021/12/11 05:42:53;;;;;;;;;8.00;5.00;;;;;5.17;70.15;101287.50;5033758;28;45571;-58
2021/12/11 05:45:19;;;;;;;;;6.75;3.25;;;;;5.14;70.68;101288.44;5031416;28;45504;-57
2021/12/11 05:47:45;;;;;;;;;9.50;4.75;;;;;5.12;69.81;101294.59;5030646;28;45415;-57
2021/12/11 05:50:16;;;;;;;;;5.00;4.00;;;;;5.09;71.01;101292.94;5031032;28;45297;-58
2021/12/11 05:52:42;;;;;;;;;7.50;4.25;;;;;5.09;70.53;101305.97;5032446;28;45342;-58
2021/12/11 05:55:10;;;;;;;;;5.25;4.00;;;;;5.09;70.00;101311.22;5034276;28;45994;-57
2021/12/11 05:57:37;;;;;;;;;8.50;3.75;;;;;5.09;70.73;101320.78;5030402;28;45363;-57
2021/12/11 06:00:09;;;;;;;;;5.00;2.00;;;;;5.07;70.27;101326.06;5031023;28;45233;-57
2021/12/11 06:02:35;;;;;;;;;2.00;2.00;;;;;5.05;70.93;101330.44;5030847;28;45590;-57
2021/12/11 06:05:00;;;;;;;;;6.75;4.25;;;;;5.03;71.42;101337.47;5033123;28;45458;-57
2021/12/11 06:07:29;;;;;;;;;4.00;2.00;;;;;5.02;70.90;101352.28;5032161;28;45324;-58
2021/12/11 06:10:04;;;;;;;;;6.50;5.25;;;;;5.03;71.83;101354.00;5032103;28;45511;-57
2021/12/11 06:12:30;;;;;;;;;4.25;3.50;;;;;5.06;71.17;101350.47;5029626;28;45303;-58
2021/12/11 06:14:55;;;;;;;;;9.00;2.50;;;;;5.04;70.91;101347.88;5032552;28;46188;-57
2021/12/11 06:17:27;;;;;;;;;5.00;3.75;;;;;5.04;70.92;101350.47;5032395;28;46773;-58
2021/12/11 06:19:55;;;;;;;;;4.25;4.00;;;;;5.06;70.79;101353.09;5029049;28;45269;-57
2021/12/11 06:22:30;;;;;;;;;8.25;4.00;;;;;5.06;71.26;101347.00;5031096;28;45257;-57
2021/12/11 06:24:58;;;;;;;;;4.75;4.25;;;;;5.04;71.17;101352.25;5029483;28;46485;-57
2021/12/11 06:27:25;;;;;;;;;8.75;5.00;;;;;5.05;70.88;101351.34;5032009;28;45442;-58
2021/12/11 06:29:51;;;;;;;;;5.00;3.00;;;;;5.04;71.41;101358.31;5033332;28;45504;-57
2021/12/11 06:32:17;;;;;;;;;3.50;3.50;;;;;5.06;71.38;101360.91;5030799;28;45676;-58
2021/12/11 06:34:42;;;;;;;;;5.25;3.50;;;;;5.06;71.08;101365.28;5029633;28;45226;-58
2021/12/11 06:37:14;;;;;;;;;4.00;4.00;;;;;5.05;70.66;101364.41;5030595;28;45311;-57
2021/12/11 06:39:40;;;;;;;;;8.00;2.75;;;;;5.04;71.83;101366.16;5029615;28;45438;-58
2021/12/11 06:42:09;;;;;;;;;9.00;2.25;;;;;5.04;71.45;101373.97;5031207;28;45232;-58
2021/12/11 06:44:37;;;;;;;;;4.75;2.00;;;;;5.02;71.97;101372.31;5030631;28;46391;-58
2021/12/11 06:47:05;;;;;;;;;5.00;4.25;;;;;5.02;71.69;101377.53;5030888;28;45464;-57
2021/12/11 06:49:32;;;;;;;;;9.25;2.50;;;;;5.01;70.79;101384.53;5031544;28;45486;-57
2021/12/11 06:51:59;;;;;;;;;6.00;4.00;;;;;5.00;71.37;101402.84;5026386;28;45237;-57
2021/12/11 06:54:25;;;;;;;;;2.00;2.00;;;;;4.97;71.83;101402.91;5028192;28;45415;-57
2021/12/11 06:56:52;;;;;;;;;10.00;6.00;;;;;4.94;71.29;101401.22;5028955;28;45383;-57
2021/12/11 06:59:18;;;;;;;;;6.50;4.25;;;;;4.94;71.92;101416.03;5024882;28;45366;-57
2021/12/11 07:01:44;;;;;;;;;10.00;6.00;;;;;4.93;72.20;101409.97;5024531;28;45239;-57
2021/12/11 07:04:11;;;;;;;;;6.75;2.00;;;;;4.94;71.90;101419.50;5022199;28;45303;-58
2021/12/11 07:06:44;;;;;;;;;5.00;1.75;;;;;4.95;72.02;101436.03;5029646;28;45415;-59
2021/12/11 07:09:13;;;;;;;;;3.75;3.00;;;;;4.95;72.27;101428.19;5024139;28;45430;-59
2021/12/11 07:11:42;;;;;;;;;3.00;2.50;;;;;4.96;71.43;101435.97;5018400;28;45215;-56
2021/12/11 07:14:09;;;;;;;;;10.50;4.25;;;;;4.97;72.27;101442.06;5027742;28;45423;-58
2021/12/11 07:16:36;;;;;;;;;7.50;4.00;;;;;4.98;72.01;101447.28;5023594;28;45382;-58
2021/12/11 07:19:04;;;;;;;;;4.75;2.00;;;;;4.99;72.11;101463.78;5028549;28;45292;-59
2021/12/11 07:21:29;;;;;;;;;8.00;2.00;;;;;4.99;71.70;101461.19;5027312;28;45494;-59
2021/12/11 07:23:55;;;;;;;;;6.00;4.25;;;;;5.00;70.86;101471.59;5028505;28;45350;-59
2021/12/11 07:26:30;;;;;;;;;5.75;2.25;;;;;5.01;71.23;101472.44;5028367;28;45493;-59
2021/12/11 07:28:59;;;;;;;;;4.00;4.00;;;;;4.99;71.52;101471.63;5028114;28;45473;-59
2021/12/11 07:31:25;;;;;;;;;12.00;4.00;;;;;5.00;71.72;101478.56;5031955;28;45478;-60
2021/12/11 07:33:52;;;;;;;;;5.75;5.00;;;;;5.00;70.79;101470.72;5024076;28;45322;-59
2021/12/11 07:36:19;;;;;;;;;5.00;3.50;;;;;4.99;71.85;101469.88;5028192;28;45336;-59
2021/12/11 07:38:45;;;;;;;;;5.25;4.50;;;;;4.99;71.23;101475.09;5020883;28;45298;-59
2021/12/11 07:41:13;;;;;;;;;4.00;4.00;;;;;4.99;71.74;101484.69;5031944;28;45217;-59
2021/12/11 07:43:40;;;;;;;;;5.00;4.00;;;;;5.00;71.76;101492.47;5026968;28;45537;-59
2021/12/11 07:46:08;;;;;;;;;8.00;4.00;;;;;5.00;72.14;101499.44;5022718;28;45435;-60
2021/12/11 07:48:34;;;;;;;;;5.50;2.00;;;;;5.00;72.10;101500.31;5027823;28;45395;-60
2021/12/11 07:51:00;;;;;;;;;6.00;5.00;;;;;5.01;71.71;101507.22;5027273;28;45315;-59
2021/12/11 07:53:26;;;;;;;;;12.25;10.00;;;;;5.02;71.59;101508.94;5030509;28;45251;-59
2021/12/11 07:55:53;;;;;;;;;10.00;4.00;;;;;5.04;71.12;101509.75;5028929;28;45431;-59
2021/12/11 07:58:20;;;;;;;;;12.00;4.50;;;;;5.05;71.53;101515.84;5027421;28;45384;-59
2021/12/11 08:00:46;;;;;;;;;5.50;5.00;;;;;5.03;71.46;101508.06;5026725;28;45474;-59
2021/12/11 08:03:14;;;;;;;;;8.00;4.00;;;;;5.06;71.89;101507.13;5024690;28;46086;-59
2021/12/11 08:05:41;;;;;;;;;8.75;4.00;;;;;5.09;71.60;101520.09;5033912;28;45277;-59
2021/12/11 08:08:10;;;;;;;;;8.00;5.25;;;;;5.11;71.56;101527.91;5028458;28;45438;-59
2021/12/11 08:10:37;;;;;;;;;12.25;5.25;;;;;5.13;71.36;101537.41;5028189;28;45557;-59
2021/12/11 08:13:04;;;;;;;;;6.75;4.25;;;;;5.14;71.28;101541.75;5025020;28;46362;-58
2021/12/11 08:15:30;;;;;;;;;6.75;4.00;;;;;5.15;71.32;101537.41;5026553;28;45376;-59
2021/12/11 08:17:55;;;;;;;;;13.50;5.25;;;;;5.16;72.34;101553.03;5030418;28;45214;-59
2021/12/11 08:20:26;;;;;;;;;7.50;6.00;;;;;5.19;71.81;101558.16;5031830;28;45431;-59
2021/12/11 08:22:53;;;;;;;;;9.50;7.00;;;;;5.21;71.42;101563.34;5031327;28;46882;-59
2021/12/11 08:25:20;;;;;;;;;12.00;7.75;;;;;5.23;71.33;101554.59;5034233;28;45337;-59
2021/12/11 08:27:45;;;;;;;;;13.00;8.00;;;;;5.27;72.15;101555.38;5032962;28;45442;-58
2021/12/11 08:30:11;;;;;;;;;12.50;8.25;;;;;5.33;71.19;101556.06;5029946;28;45576;-59
2021/12/11 08:32:37;;;;;;;;;8.75;8.00;;;;;5.39;71.52;101555.06;5003721;28;45800;-59
2021/12/11 08:35:05;;;;;;;;;13.50;7.50;;;;;5.46;71.43;101561.00;5003574;28;46765;-59
2021/12/11 08:37:30;;;;;;;;;5.00;4.50;;;;;5.55;71.08;101571.22;5003310;28;45315;-59
2021/12/11 08:39:56;;;;;;;;;16.75;11.75;;;;;5.64;71.80;101575.38;5004864;28;45426;-59
2021/12/11 08:42:24;;;;;;;;;17.75;10.75;;;;;5.74;71.55;101574.22;5016056;28;45666;-58
2021/12/11 08:45:04;;;;;;;;;13.00;11.00;;;;;5.84;70.38;101565.22;5027318;28;45613;-60
2021/12/11 08:47:30;;;;;;;;;19.75;9.25;;;;;5.96;70.94;101556.25;5029055;28;45562;-59
2021/12/11 08:49:56;;;;;;;;;17.50;13.50;;;;;6.05;70.80;101567.31;5020943;28;45309;-59
2021/12/11 08:52:29;;;;;;;;;17.75;12.50;;;;;6.15;70.04;101570.53;5021094;28;46356;-62
2021/12/11 08:54:57;;;;;;;;;13.25;9.50;;;;;6.25;70.54;101574.63;5016029;28;45475;-58
2021/12/11 08:57:29;;;;;;;;;11.25;9.75;;;;;6.31;70.21;101579.66;5019504;28;45328;-58
2021/12/11 09:00:05;;;;;;;;;12.25;9.25;;;;;6.38;70.67;101588.22;5020303;28;45458;-59
2021/12/11 09:02:48;;;;;;;;;15.50;10.50;;;;;6.44;70.35;101594.13;5022392;28;47267;-59
2021/12/11 09:05:32;;;;;;;;;13.25;7.75;;;;;6.51;69.98;101592.19;5031833;28;45388;-60
2021/12/11 09:08:22;;;;;;;;;8.25;7.25;;;;;6.60;70.29;101591.06;5025285;28;45311;-61
2021/12/11 09:11:03;;;;;;;;;6.75;5.75;;;;;6.67;69.60;101592.63;5031139;28;45169;-61
2021/12/11 09:13:33;;;;;;;;;7.00;5.00;;;;;6.76;69.81;101596.72;5027708;28;46046;-61
2021/12/11 09:16:03;;;;;;;;;8.00;6.50;;;;;6.84;69.20;101608.69;5028751;28;45370;-60
2021/12/11 09:18:43;;;;;;;;;10.75;6.50;;;;;6.93;69.17;101604.91;5026700;28;45328;-59
2021/12/11 09:21:20;;;;;;;;;8.50;5.50;;;;;7.04;69.22;101617.72;5028753;28;45472;-60
2021/12/11 09:23:52;;;;;;;;;10.00;6.00;;;;;7.11;68.58;101621.84;5030323;28;46467;-59
2021/12/11 09:26:31;;;;;;;;;6.25;3.00;;;;;7.17;68.71;101625.13;5029413;28;45232;-59
2021/12/11 09:29:14;;;;;;;;;9.75;5.00;;;;;7.22;68.58;101633.72;5031545;28;45539;-59
2021/12/11 09:31:56;;;;;;;;;7.25;5.75;;;;;7.21;68.28;101641.63;5031422;28;45434;-59
2021/12/11 09:34:27;;;;;;;;;13.50;8.00;;;;;7.22;67.82;101652.06;5027546;28;45526;-59
2021/12/11 09:36:57;;;;;;;;;6.00;6.00;;;;;7.17;68.22;101656.56;5030339;28;45323;-60
2021/12/11 09:39:45;;;;;;;;;8.25;6.75;;;;;7.19;67.78;101657.41;5031157;28;45411;-60
2021/12/11 09:42:10;;;;;;;;;8.50;7.00;;;;;7.22;67.97;101664.31;5033203;28;45717;-60
2021/12/11 09:44:50;;;;;;;;;7.50;6.00;;;;;7.26;67.90;101664.16;5043853;28;45492;-60
2021/12/11 09:47:30;;;;;;;;;6.50;5.00;;;;;7.31;67.66;101658.78;5033931;28;45446;-59
2021/12/11 09:50:03;;;;;;;;;9.00;6.00;;;;;7.35;67.59;101657.78;5028914;28;45642;-59
2021/12/11 09:52:32;;;;;;;;;11.00;7.00;;;;;7.38;67.61;101668.16;5031801;28;45304;-59
2021/12/11 09:55:06;;;;;;;;;7.00;5.00;;;;;7.39;67.39;101669.03;5031909;28;45570;-59
2021/12/11 09:57:37;;;;;;;;;8.00;8.00;;;;;7.41;67.63;101669.81;5031989;28;45361;-59
2021/12/11 10:00:16;;;;;;;;;14.00;6.50;;;;;7.45;67.71;101671.47;5033001;28;45423;-60
2021/12/11 10:02:43;;;;;;;;;11.25;8.25;;;;;7.48;67.61;101680.06;5029875;28;45490;-59
2021/12/11 10:05:29;;;;;;;;;15.00;15.00;;;;;7.51;67.19;101685.25;5031593;28;45281;-59
2021/12/11 10:08:25;;;;;;;;;11.50;7.00;;;;;7.55;67.16;101688.59;5033477;28;45320;-59
2021/12/11 10:10:47;;;;;;;;;5.50;5.25;;;;;7.59;67.37;101685.00;5031753;28;45474;-59
2021/12/11 10:13:13;;;;;;;;;9.75;6.25;;;;;7.65;67.14;101694.41;5030412;28;45445;-59
2021/12/11 10:15:40;;;;;;;;;10.25;7.00;;;;;7.67;67.10;101696.09;5028674;28;46682;-59
2021/12/11 10:18:17;;;;;;;;;5.25;3.00;;;;;7.70;67.51;101692.50;5032296;28;45455;-59
2021/12/11 10:21:14;;;;;;;;;13.75;7.75;;;;;7.74;67.13;101696.72;5030970;28;45474;-59
2021/12/11 10:23:42;;;;;;;;;11.00;7.25;;;;;7.80;66.95;101693.91;5033358;28;45351;-59
2021/12/11 10:26:10;;;;;;;;;10.00;6.75;;;;;7.86;67.07;101698.13;5031146;28;46071;-60
2021/12/11 10:28:40;;;;;;;;;14.25;10.50;;;;;7.88;66.96;101697.16;5032374;28;45312;-59
2021/12/11 10:31:12;;;;;;;;;10.00;7.50;;;;;7.91;66.71;101694.44;5031285;28;45367;-59
2021/12/11 10:33:38;;;;;;;;;6.00;6.00;;;;;7.94;66.59;101690.84;5031070;28;45389;-59
2021/12/11 10:36:10;;;;;;;;;7.00;5.50;;;;;7.96;66.48;101689.88;5029699;28;45419;-59
2021/12/11 10:38:36;;;;;;;;;10.25;5.00;;;;;7.99;66.36;101688.94;5027835;28;45288;-59
2021/12/11 10:41:05;;;;;;;;;2.75;2.50;;;;;7.98;66.32;101695.97;5023382;28;45372;-60
2021/12/11 10:43:53;;;;;;;;;6.50;5.75;;;;;7.97;66.12;101696.84;5027599;28;45391;-62
2021/12/11 10:46:22;;;;;;;;;11.25;5.00;;;;;7.95;66.09;101703.06;5029136;28;47743;-62
2021/12/11 10:48:48;;;;;;;;;6.75;5.25;;;;;7.90;66.30;101699.72;5035987;28;45470;-62
2021/12/11 10:51:22;;;;;;;;;8.75;5.00;;;;;7.90;66.25;101700.59;5031443;28;45426;-59
2021/12/11 10:53:49;;;;;;;;;4.25;3.00;;;;;7.95;66.30;101703.06;5031516;28;45245;-63
2021/12/11 10:56:18;;;;;;;;;5.75;4.00;;;;;7.94;66.41;101704.81;5021770;28;45367;-62
2021/12/11 10:58:51;;;;;;;;;10.00;7.00;;;;;7.97;66.33;101706.47;5033079;28;45362;-58
2021/12/11 11:01:23;;;;;;;;;6.00;3.50;;;;;7.99;66.09;101700.31;5026481;28;45368;-57
2021/12/11 11:03:54;;;;;;;;;8.75;5.75;;;;;8.03;66.50;101706.28;5027877;28;45474;-58
2021/12/11 11:06:20;;;;;;;;;5.50;5.00;;;;;8.10;66.17;101705.19;5027045;28;45387;-59
2021/12/11 11:08:46;;;;;;;;;7.25;6.00;;;;;8.18;66.11;101710.16;5025592;28;45305;-58
2021/12/11 11:11:17;;;;;;;;;9.75;6.00;;;;;8.23;65.87;101705.63;5028298;28;45477;-59
2021/12/11 11:13:45;;;;;;;;;6.00;5.75;;;;;8.33;65.72;101715.75;5026586;28;45306;-59
2021/12/11 11:16:11;;;;;;;;;12.00;7.00;;;;;8.43;65.77;101716.31;5025085;28;45452;-58
2021/12/11 11:18:37;;;;;;;;;6.75;3.00;;;;;8.56;65.67;101709.75;5025919;28;45329;-59
2021/12/11 11:21:31;;;;;;;;;7.50;5.00;;;;;8.69;65.28;101699.66;5029697;28;45312;-60
2021/12/11 11:23:57;;;;;;;;;10.50;6.25;;;;;8.87;65.31;101706.00;5014351;28;45312;-60
2021/12/11 11:26:29;;;;;;;;;7.00;6.00;;;;;9.00;64.66;101707.25;5031130;28;45269;-60
2021/12/11 11:28:56;;;;;;;;;7.25;5.25;;;;;9.09;64.23;101706.09;5028980;28;45538;-61
2021/12/11 11:31:27;;;;;;;;;7.00;6.00;;;;;9.13;64.20;101691.91;5032249;28;45260;-60
2021/12/11 11:33:54;;;;;;;;;6.50;4.75;;;;;9.13;64.31;101692.75;5029756;28;45403;-60
2021/12/11 11:36:25;;;;;;;;;3.25;2.00;;;;;9.15;63.81;101697.94;5022246;28;46180;-58
2021/12/11 11:38:56;;;;;;;;;10.00;6.00;;;;;9.14;64.04;101706.75;5014170;28;45288;-64
2021/12/11 11:41:30;;;;;;;;;6.25;5.00;;;;;9.13;63.82;101700.63;5023396;28;45332;-62
2021/12/11 11:43:58;;;;;;;;;3.75;3.75;;;;;9.15;63.87;101701.44;5010771;28;45264;-62
2021/12/11 11:46:24;;;;;;;;;8.00;4.75;;;;;9.16;63.97;101697.03;5025038;28;46838;-61
2021/12/11 11:48:54;;;;;;;;;13.00;2.75;;;;;9.20;63.99;101706.53;5021243;28;45419;-61
2021/12/11 11:51:33;;;;;;;;;7.75;5.75;;;;;9.25;63.54;101709.00;5020901;28;45325;-62
2021/12/11 11:53:59;;;;;;;;;7.50;5.00;;;;;9.29;64.02;101721.94;5021556;28;45440;-61
2021/12/11 11:56:31;;;;;;;;;10.25;6.00;;;;;9.31;63.48;101716.63;5019592;28;45226;-63
2021/12/11 11:58:57;;;;;;;;;13.25;5.00;;;;;9.34;63.32;101721.78;5021102;28;45544;-62
2021/12/11 12:01:29;;;;;;;;;6.00;6.00;;;;;9.35;63.13;101723.50;5028999;28;45340;-62